createdAt,value
2023-05-20T00:01:37.383Z,8.55
2023-05-20T00:04:06.253Z,9.52
2023-05-20T00:06:35.063Z,9.43
2023-05-20T00:09:04.612Z,10.35
2023-05-20T00:11:32.878Z,11.23
2023-05-20T00:14:00.975Z,13.45
2023-05-20T00:16:29.119Z,7.60
2023-05-20T00:18:57.901Z,12.05
2023-05-20T00:21:26.177Z,7.68
2023-05-20T00:23:54.377Z,12.70
2023-05-20T00:26:23.890Z,7.07
2023-05-20T00:28:56.069Z,8.73
2023-05-20T00:31:24.425Z,10.30
2023-05-20T00:33:52.579Z,11.20
2023-05-20T00:36:22.951Z,10.30
2023-05-20T00:38:51.350Z,9.20
2023-05-20T00:41:19.528Z,9.45
2023-05-20T00:43:49.150Z,9.30
2023-05-20T00:46:17.316Z,10.13
2023-05-20T00:48:45.942Z,6.45
2023-05-20T00:51:15.219Z,8.20
2023-05-20T00:53:44.500Z,10.07
2023-05-20T00:56:13.302Z,8.52
2023-05-20T00:58:41.679Z,10.40
2023-05-20T01:01:14.051Z,12.38
2023-05-20T01:03:42.627Z,7.82
2023-05-20T01:06:10.964Z,9.93
2023-05-20T01:08:39.189Z,11.63
2023-05-20T01:11:10.111Z,10.82
2023-05-20T01:13:41.841Z,13.07
2023-05-20T01:16:18.837Z,9.32
2023-05-20T01:18:50.630Z,9.10
2023-05-20T01:21:19.755Z,9.48
2023-05-20T01:23:49.312Z,10.68
2023-05-20T01:26:21.704Z,10.57
2023-05-20T01:28:51.166Z,13.63
2023-05-20T01:31:25.712Z,8.88
2023-05-20T01:33:58.561Z,11.27
2023-05-20T01:38:58.656Z,13.05
2023-05-20T01:41:28.445Z,7.72
2023-05-20T01:43:57.022Z,9.82
2023-05-20T01:46:25.696Z,9.18
2023-05-20T01:48:54.107Z,11.45
2023-05-20T01:51:22.319Z,10.65
2023-05-20T01:53:50.568Z,11.02
2023-05-20T01:56:22.067Z,11.90
2023-05-20T01:58:50.663Z,13.85
2023-05-20T02:01:18.940Z,11.65
2023-05-20T02:03:47.347Z,11.88
2023-05-20T02:06:15.841Z,11.98
2023-05-20T02:08:44.014Z,10.73
2023-05-20T02:11:12.155Z,11.27
2023-05-20T02:13:41.770Z,11.93
2023-05-20T02:16:10.045Z,7.47
2023-05-20T02:18:38.498Z,13.23
2023-05-20T02:21:07.342Z,12.25
2023-05-20T02:23:35.645Z,11.50
2023-05-20T02:26:03.965Z,11.77
2023-05-20T02:28:32.095Z,9.05
2023-05-20T02:31:02.038Z,12.48
2023-05-20T02:33:33.067Z,10.52
2023-05-20T02:36:01.901Z,10.50
2023-05-20T02:38:32.875Z,14.50
2023-05-20T02:41:01.072Z,11.18
2023-05-20T02:43:29.248Z,12.57
2023-05-20T02:45:57.448Z,11.93
2023-05-20T02:48:29.164Z,9.80
2023-05-20T02:50:57.589Z,9.65
2023-05-20T02:53:28.052Z,13.43
2023-05-20T02:55:56.319Z,13.38
2023-05-20T02:58:26.283Z,12.80
2023-05-20T03:00:54.485Z,12.30
2023-05-20T03:03:22.948Z,9.52
2023-05-20T03:05:52.496Z,12.57
2023-05-20T03:08:22.507Z,10.93
2023-05-20T03:10:50.832Z,10.70
2023-05-20T03:13:18.967Z,9.00
2023-05-20T03:15:47.393Z,7.82
2023-05-20T03:18:15.528Z,11.20
2023-05-20T03:20:43.788Z,17.90
2023-05-20T03:23:14.394Z,13.93
2023-05-20T03:25:42.572Z,9.77
2023-05-20T03:28:10.896Z,16.40
2023-05-20T03:30:39.433Z,11.75
2023-05-20T03:33:07.643Z,11.73
2023-05-20T03:35:36.238Z,15.10
2023-05-20T03:38:04.620Z,9.65
2023-05-20T03:40:35.836Z,9.68
2023-05-20T03:43:04.983Z,11.38
2023-05-20T03:45:34.571Z,12.85
2023-05-20T03:48:08.257Z,12.70
2023-05-20T03:50:37.451Z,15.45
2023-05-20T03:53:05.787Z,9.48
2023-05-20T03:55:41.040Z,11.63
2023-05-20T03:58:10.365Z,20.02
2023-05-20T04:00:38.553Z,10.90
2023-05-20T04:03:07.021Z,11.90
2023-05-20T04:05:37.424Z,12.88
2023-05-20T04:08:13.592Z,15.25
2023-05-20T04:10:43.833Z,10.82
2023-05-20T04:13:13.138Z,11.07
2023-05-20T04:15:42.140Z,16.45
2023-05-20T04:18:11.573Z,11.50
2023-05-20T04:20:41.354Z,11.70
2023-05-20T04:23:10.284Z,18.95
2023-05-20T04:25:38.813Z,14.30
2023-05-20T04:28:09.257Z,18.33
2023-05-20T04:30:37.495Z,14.02
2023-05-20T04:33:08.781Z,9.20
2023-05-20T04:35:37.681Z,15.63
2023-05-20T04:38:07.512Z,15.15
2023-05-20T04:40:35.844Z,19.05
2023-05-20T04:43:04.906Z,14.98
2023-05-20T04:45:35.747Z,16.77
2023-05-20T04:48:04.213Z,14.88
2023-05-20T04:50:33.083Z,13.98
2023-05-20T04:53:01.277Z,14.55
2023-05-20T04:55:29.936Z,23.58
2023-05-20T04:57:58.064Z,16.85
2023-05-20T05:00:26.332Z,14.73
2023-05-20T05:02:56.753Z,14.93
2023-05-20T05:05:24.947Z,15.07
2023-05-20T05:07:54.536Z,13.23
2023-05-20T05:10:24.841Z,11.60
2023-05-20T05:12:52.945Z,13.05
2023-05-20T05:15:21.460Z,15.95
2023-05-20T05:17:49.699Z,12.02
2023-05-20T05:20:19.630Z,14.30
2023-05-20T05:22:47.798Z,14.70
2023-05-20T05:25:15.930Z,13.63
2023-05-20T05:27:45.234Z,13.65
2023-05-20T05:30:13.685Z,12.70
2023-05-20T05:32:41.961Z,16.88
2023-05-20T05:35:11.074Z,15.60
2023-05-20T05:37:43.155Z,15.00
2023-05-20T05:40:12.233Z,16.17
2023-05-20T05:42:40.503Z,15.52
2023-05-20T05:45:10.652Z,13.30
2023-05-20T05:47:38.924Z,13.32
2023-05-20T05:50:07.620Z,17.63
2023-05-20T05:52:37.059Z,14.48
2023-05-20T05:55:10.693Z,16.67
2023-05-20T05:57:39.010Z,15.93
2023-05-20T06:00:17.490Z,20.08
2023-05-20T06:02:49.392Z,17.42
2023-05-20T06:05:32.007Z,14.13
2023-05-20T06:08:00.427Z,13.27
2023-05-20T06:10:30.093Z,20.30
2023-05-20T06:12:58.324Z,23.35
2023-05-20T06:15:27.510Z,15.23
2023-05-20T06:17:55.926Z,14.88
2023-05-20T06:20:24.373Z,14.65
2023-05-20T06:22:52.640Z,16.38
2023-05-20T06:25:25.954Z,15.52
2023-05-20T06:27:55.522Z,15.35
2023-05-20T06:30:25.095Z,16.92
2023-05-20T06:32:53.256Z,14.48
2023-05-20T06:35:21.580Z,16.65
2023-05-20T06:37:50.543Z,20.77
2023-05-20T06:40:21.234Z,13.18
2023-05-20T06:42:49.453Z,16.30
2023-05-20T06:45:19.090Z,17.98
2023-05-20T06:47:54.389Z,14.98
2023-05-20T06:50:22.905Z,12.13
2023-05-20T06:52:51.198Z,12.75
2023-05-20T06:55:22.554Z,17.10
2023-05-20T06:57:52.848Z,21.48
2023-05-20T07:00:22.638Z,15.00
2023-05-20T07:02:52.564Z,16.40
2023-05-20T07:05:21.742Z,17.33
2023-05-20T07:07:49.890Z,14.43
2023-05-20T07:10:18.616Z,15.23
2023-05-20T07:12:46.758Z,12.48
2023-05-20T07:15:14.991Z,15.55
2023-05-20T07:17:46.168Z,15.82
2023-05-20T07:20:14.517Z,11.95
2023-05-20T07:22:44.070Z,11.30
2023-05-20T07:25:35.364Z,20.40
2023-05-20T07:28:04.355Z,13.52
2023-05-20T07:30:32.597Z,12.55
2023-05-20T07:33:17.579Z,14.85
2023-05-20T07:35:46.945Z,12.00
2023-05-20T07:38:15.063Z,13.63
2023-05-20T07:40:44.689Z,13.73
2023-05-20T07:43:12.937Z,10.55
2023-05-20T07:45:41.271Z,9.52
2023-05-20T07:48:10.863Z,12.05
2023-05-20T07:50:40.805Z,15.10
2023-05-20T07:53:09.571Z,12.00
2023-05-20T07:55:38.026Z,13.02
2023-05-20T07:58:07.026Z,13.32
2023-05-20T08:00:36.897Z,11.25
2023-05-20T08:03:08.745Z,14.23
2023-05-20T08:06:10.854Z,9.68
2023-05-20T08:08:40.426Z,15.25
2023-05-20T08:11:13.892Z,14.07
2023-05-20T08:13:42.209Z,12.30
2023-05-20T08:16:10.719Z,10.70
2023-05-20T08:18:38.886Z,10.88
2023-05-20T08:21:08.808Z,9.77
2023-05-20T08:23:40.507Z,10.65
2023-05-20T08:26:09.340Z,13.67
2023-05-20T08:28:41.696Z,11.57
2023-05-20T08:31:10.149Z,18.02
2023-05-20T08:33:38.374Z,10.70
2023-05-20T08:36:08.207Z,10.55
2023-05-20T08:38:36.751Z,14.48
2023-05-20T08:41:06.453Z,13.27
2023-05-20T08:43:36.019Z,11.70
2023-05-20T08:46:06.474Z,10.98
2023-05-20T08:48:37.227Z,14.20
2023-05-20T08:51:07.084Z,9.38
2023-05-20T08:53:35.447Z,11.10
2023-05-20T08:56:04.101Z,11.13
2023-05-20T08:58:33.792Z,10.10
2023-05-20T09:01:04.931Z,10.00
2023-05-20T09:03:34.159Z,9.20
2023-05-20T09:06:05.768Z,11.55
2023-05-20T09:08:34.699Z,15.65
2023-05-20T09:11:03.024Z,15.48
2023-05-20T09:13:33.948Z,11.55
2023-05-20T09:16:03.633Z,14.60
2023-05-20T09:18:32.026Z,12.13
2023-05-20T09:21:05.683Z,11.50
2023-05-20T09:23:34.097Z,10.82
2023-05-20T09:26:05.728Z,12.98
2023-05-20T09:28:38.181Z,11.82
2023-05-20T09:31:08.909Z,9.82
2023-05-20T09:33:39.357Z,15.95
2023-05-20T09:36:09.854Z,14.88
2023-05-20T09:38:40.624Z,13.93
2023-05-20T09:41:10.001Z,18.52
2023-05-20T09:43:40.493Z,16.70
2023-05-20T09:46:09.345Z,13.77
2023-05-20T09:48:38.479Z,17.02
2023-05-20T09:51:07.939Z,14.40
2023-05-20T09:53:37.236Z,16.13
2023-05-20T09:56:05.908Z,16.85
2023-05-20T09:58:36.801Z,16.20
2023-05-20T10:01:08.553Z,23.70
2023-05-20T10:03:36.972Z,21.63
2023-05-20T10:06:30.012Z,17.08
2023-05-20T10:09:18.510Z,15.88
2023-05-20T10:11:53.858Z,16.98
2023-05-20T10:14:33.148Z,20.02
2023-05-20T10:17:10.178Z,20.08
2023-05-20T10:19:38.408Z,15.18
2023-05-20T10:22:09.970Z,16.15
2023-05-20T10:24:40.890Z,17.33
2023-05-20T10:27:10.960Z,15.40
2023-05-20T10:32:27.320Z,17.05
2023-05-20T10:35:01.142Z,14.98
2023-05-20T10:37:30.539Z,15.48
2023-05-20T10:40:09.485Z,16.10
2023-05-20T10:42:37.650Z,16.10
2023-05-20T10:45:07.386Z,14.05
2023-05-20T10:47:37.487Z,16.40
2023-05-20T10:50:07.547Z,17.48
2023-05-20T10:52:37.713Z,18.48
2023-05-20T10:55:07.460Z,12.88
2023-05-20T10:57:36.304Z,19.15
2023-05-20T11:00:10.813Z,15.10
2023-05-20T11:02:42.057Z,15.93
2023-05-20T11:05:13.400Z,15.85
2023-05-20T11:07:44.180Z,23.33
2023-05-20T11:10:12.538Z,19.23
2023-05-20T11:12:41.280Z,18.13
2023-05-20T11:15:13.051Z,21.30
2023-05-20T11:17:55.432Z,21.38
2023-05-20T11:20:24.858Z,15.70
2023-05-20T11:22:53.491Z,17.50
2023-05-20T11:25:23.262Z,15.70
2023-05-20T11:27:53.768Z,14.13
2023-05-20T11:30:22.678Z,20.60
2023-05-20T11:33:03.076Z,17.00
2023-05-20T11:35:33.395Z,14.68
2023-05-20T11:38:06.331Z,20.13
2023-05-20T11:40:46.247Z,14.20
2023-05-20T11:43:18.726Z,12.30
2023-05-20T11:45:48.742Z,16.45
2023-05-20T11:48:18.287Z,14.40
2023-05-20T11:50:47.803Z,14.35
2023-05-20T11:53:17.897Z,16.85
2023-05-20T11:55:47.608Z,15.70
2023-05-20T11:58:20.447Z,17.42
2023-05-20T12:03:29.127Z,17.00
2023-05-20T12:06:01.678Z,23.83
2023-05-20T12:08:32.792Z,18.60
2023-05-20T12:11:01.058Z,19.77
2023-05-20T12:13:29.288Z,17.38
2023-05-20T12:15:57.670Z,17.30
2023-05-20T12:18:25.918Z,19.23
2023-05-20T12:20:55.508Z,18.20
2023-05-20T12:23:23.722Z,18.58
2023-05-20T12:25:51.898Z,15.77
2023-05-20T12:28:23.588Z,18.90
2023-05-20T12:30:54.842Z,14.63
2023-05-20T12:33:23.020Z,18.35
2023-05-20T12:35:51.234Z,14.05
2023-05-20T12:38:20.840Z,17.33
2023-05-20T12:40:49.316Z,16.27
2023-05-20T12:43:17.470Z,21.38
2023-05-20T12:45:45.800Z,21.10
2023-05-20T12:48:14.011Z,15.80
2023-05-20T12:50:42.496Z,17.63
2023-05-20T12:53:10.656Z,18.33
2023-05-20T12:55:40.604Z,15.05
2023-05-20T12:58:11.031Z,20.15
2023-05-20T13:00:39.226Z,19.77
2023-05-20T13:03:07.726Z,17.42
2023-05-20T13:05:36.118Z,19.48
2023-05-20T13:08:09.205Z,19.15
2023-05-20T13:10:38.936Z,16.60
2023-05-20T13:13:07.066Z,18.10
2023-05-20T13:15:35.527Z,22.20
2023-05-20T13:18:06.279Z,14.77
2023-05-20T13:20:34.709Z,15.95
2023-05-20T13:23:03.008Z,16.08
2023-05-20T13:25:31.930Z,15.15
2023-05-20T13:28:02.330Z,13.90
2023-05-20T13:30:30.703Z,14.95
2023-05-20T13:32:59.008Z,13.95
2023-05-20T13:35:27.168Z,15.10
2023-05-20T13:37:55.301Z,15.40
2023-05-20T13:40:23.641Z,17.52
2023-05-20T13:42:51.762Z,19.27
2023-05-20T13:45:22.411Z,22.02
2023-05-20T13:47:50.601Z,16.27
2023-05-20T13:50:18.726Z,16.67
2023-05-20T13:52:46.861Z,19.90
2023-05-20T13:55:15.970Z,17.35
2023-05-20T13:57:44.288Z,14.82
2023-05-20T14:00:13.619Z,14.77
2023-05-20T14:02:43.290Z,13.07
2023-05-20T14:05:15.801Z,13.15
2023-05-20T14:07:46.234Z,13.15
2023-05-20T14:10:14.581Z,15.38
2023-05-20T14:12:47.984Z,17.33
2023-05-20T14:15:16.424Z,12.77
2023-05-20T14:17:46.261Z,15.18
2023-05-20T14:20:14.754Z,14.25
2023-05-20T14:22:43.083Z,15.10
2023-05-20T14:25:11.314Z,18.48
2023-05-20T14:27:39.462Z,18.23
2023-05-20T14:30:09.186Z,13.52
2023-05-20T14:32:37.461Z,14.07
2023-05-20T14:35:08.311Z,12.35
2023-05-20T14:37:36.560Z,15.77
2023-05-20T14:40:07.465Z,13.30
2023-05-20T14:42:35.893Z,14.50
2023-05-20T14:45:04.566Z,12.43
2023-05-20T14:47:32.788Z,16.13
2023-05-20T14:50:01.322Z,15.02
2023-05-20T14:52:30.944Z,18.73
2023-05-20T14:54:59.546Z,13.93
2023-05-20T14:57:27.970Z,15.23
2023-05-20T14:59:56.106Z,13.68
2023-05-20T15:02:24.293Z,15.77
2023-05-20T15:04:52.472Z,11.98
2023-05-20T15:07:20.656Z,15.10
2023-05-20T15:09:50.456Z,13.02
2023-05-20T15:12:18.599Z,15.88
2023-05-20T15:14:46.707Z,12.25
2023-05-20T15:17:15.011Z,15.43
2023-05-20T15:19:43.185Z,13.57
2023-05-20T15:22:11.338Z,12.55
2023-05-20T15:24:39.630Z,15.55
2023-05-20T15:27:09.223Z,14.77
2023-05-20T15:29:38.850Z,14.13
2023-05-20T15:32:08.721Z,14.18
2023-05-20T15:34:37.004Z,13.95
2023-05-20T15:37:05.364Z,9.88
2023-05-20T15:39:33.815Z,13.02
2023-05-20T15:42:02.906Z,11.73
2023-05-20T15:44:32.538Z,13.13
2023-05-20T15:47:00.708Z,10.32
2023-05-20T15:49:29.166Z,17.42
2023-05-20T15:52:03.504Z,13.05
2023-05-20T15:54:32.935Z,11.85
2023-05-20T15:57:02.538Z,12.10
2023-05-20T15:59:32.232Z,9.18
2023-05-20T16:02:00.740Z,12.25
2023-05-20T16:04:29.041Z,12.02
2023-05-20T16:06:57.333Z,9.88
2023-05-20T16:09:25.632Z,9.82
2023-05-20T16:11:53.738Z,10.85
2023-05-20T16:14:22.032Z,10.73
2023-05-20T16:16:51.593Z,13.48
2023-05-20T16:19:19.889Z,12.90
2023-05-20T16:21:48.016Z,12.65
2023-05-20T16:24:16.735Z,14.48
2023-05-20T16:26:44.899Z,12.65
2023-05-20T16:29:15.663Z,12.32
2023-05-20T16:31:46.632Z,14.63
2023-05-20T16:36:46.943Z,12.80
2023-05-20T16:39:15.497Z,10.68
2023-05-20T16:41:44.493Z,13.07
2023-05-20T16:44:12.708Z,12.65
2023-05-20T16:46:40.891Z,12.52
2023-05-20T16:49:09.011Z,12.82
2023-05-20T16:51:38.561Z,13.38
2023-05-20T16:54:08.160Z,12.10
2023-05-20T16:56:36.742Z,12.43
2023-05-20T16:59:04.968Z,16.33
2023-05-20T17:01:33.304Z,17.33
2023-05-20T17:04:01.550Z,11.18
2023-05-20T17:06:34.364Z,9.75
2023-05-20T17:09:04.660Z,12.25
2023-05-20T17:11:32.914Z,11.65
2023-05-20T17:14:01.080Z,12.38
2023-05-20T17:16:29.638Z,14.15
2023-05-20T17:18:58.638Z,14.68
2023-05-20T17:21:26.882Z,12.85
2023-05-20T17:23:55.023Z,28.55
2023-05-20T17:26:25.029Z,10.63
2023-05-20T17:28:53.307Z,14.35
2023-05-20T17:31:21.811Z,12.32
2023-05-20T17:33:50.798Z,14.85
2023-05-20T17:36:19.090Z,14.30
2023-05-20T17:38:47.687Z,16.52
2023-05-20T17:41:17.806Z,12.02
2023-05-20T17:43:47.533Z,14.45
2023-05-20T17:46:16.183Z,16.98
2023-05-20T17:48:45.728Z,18.23
2023-05-20T17:51:13.926Z,19.20
2023-05-20T17:53:42.157Z,12.35
2023-05-20T17:56:10.361Z,11.65
2023-05-20T17:58:38.552Z,14.15
2023-05-20T18:01:09.378Z,14.07
2023-05-20T18:03:39.700Z,17.23
2023-05-20T18:06:08.801Z,16.63
2023-05-20T18:08:37.132Z,14.02
2023-05-20T18:11:05.755Z,15.95
2023-05-20T18:13:33.941Z,13.95
2023-05-20T18:16:02.157Z,12.35
2023-05-20T18:18:31.744Z,13.32
2023-05-20T18:21:00.106Z,15.85
2023-05-20T18:23:28.312Z,11.35
2023-05-20T18:25:56.782Z,9.70
2023-05-20T18:28:24.984Z,13.95
2023-05-20T18:30:53.131Z,15.98
2023-05-20T18:33:24.452Z,17.17
2023-05-20T18:35:54.193Z,13.50
2023-05-20T18:38:22.744Z,15.25
2023-05-20T18:40:50.984Z,13.73
2023-05-20T18:43:21.717Z,18.38
2023-05-20T18:45:49.989Z,14.10
2023-05-20T18:48:26.191Z,16.10
2023-05-20T18:50:56.505Z,20.08
2023-05-20T18:53:26.927Z,13.40
2023-05-20T18:55:55.951Z,15.73
2023-05-20T18:58:24.188Z,17.00
2023-05-20T19:00:52.774Z,12.55
2023-05-20T19:03:23.360Z,15.85
2023-05-20T19:05:51.684Z,15.32
2023-05-20T19:08:23.229Z,12.93
2023-05-20T19:10:51.563Z,16.65
2023-05-20T19:13:19.742Z,15.13
2023-05-20T19:15:47.993Z,18.20
2023-05-20T19:18:16.316Z,15.38
2023-05-20T19:20:44.511Z,16.90
2023-05-20T19:23:12.724Z,17.00
2023-05-20T19:25:42.415Z,16.50
2023-05-20T19:28:10.717Z,18.05
2023-05-20T19:30:39.400Z,15.50
2023-05-20T19:33:08.103Z,18.23
2023-05-20T19:35:39.576Z,18.73
2023-05-20T19:38:07.912Z,14.38
2023-05-20T19:40:36.946Z,18.65
2023-05-20T19:43:06.513Z,16.38
2023-05-20T19:45:36.284Z,19.00
2023-05-20T19:48:05.460Z,15.60
2023-05-20T19:50:34.126Z,16.95
2023-05-20T19:53:06.221Z,16.33
2023-05-20T19:55:36.125Z,14.90
2023-05-20T19:58:06.216Z,15.95
2023-05-20T20:00:34.469Z,14.02
2023-05-20T20:03:06.320Z,17.52
2023-05-20T20:05:34.841Z,13.90
2023-05-20T20:08:03.197Z,17.25
2023-05-20T20:10:31.856Z,15.75
2023-05-20T20:13:00.346Z,19.63
2023-05-20T20:15:31.729Z,20.73
2023-05-20T20:18:00.134Z,15.43
2023-05-20T20:20:28.245Z,14.75
2023-05-20T20:22:57.624Z,16.30
2023-05-20T20:25:26.856Z,16.95
2023-05-20T20:27:55.074Z,15.63
2023-05-20T20:30:23.491Z,17.08
2023-05-20T20:32:53.382Z,15.40
2023-05-20T20:35:22.663Z,18.10
2023-05-20T20:37:54.238Z,17.83
2023-05-20T20:40:22.677Z,14.07
2023-05-20T20:42:50.800Z,15.95
2023-05-20T20:45:22.608Z,17.35
2023-05-20T20:47:54.734Z,21.48
2023-05-20T20:50:23.471Z,19.70
2023-05-20T20:52:51.592Z,20.55
2023-05-20T20:55:19.820Z,16.35
2023-05-20T20:57:47.937Z,16.98
2023-05-20T21:00:20.603Z,16.90
2023-05-20T21:02:48.889Z,19.63
2023-05-20T21:05:21.430Z,19.80
2023-05-20T21:07:52.544Z,22.73
2023-05-20T21:10:20.798Z,18.88
2023-05-20T21:12:49.234Z,17.08
2023-05-20T21:15:17.520Z,15.25
2023-05-20T21:17:45.801Z,19.42
2023-05-20T21:20:15.230Z,20.08
2023-05-20T21:22:44.758Z,19.25
2023-05-20T21:25:13.155Z,15.90
2023-05-20T21:27:42.065Z,14.68
2023-05-20T21:30:11.515Z,18.17
2023-05-20T21:32:39.942Z,22.02
2023-05-20T21:35:09.381Z,17.48
2023-05-20T21:37:37.879Z,15.98
2023-05-20T21:40:09.012Z,19.02
2023-05-20T21:42:37.785Z,19.13
2023-05-20T21:45:06.994Z,19.15
2023-05-20T21:47:35.201Z,17.00
2023-05-20T21:50:03.716Z,19.05
2023-05-20T21:52:31.869Z,21.38
2023-05-20T21:55:00.008Z,18.05
2023-05-20T21:57:29.516Z,19.63
2023-05-20T21:59:57.609Z,20.27
2023-05-20T22:02:25.782Z,20.13
2023-05-20T22:04:55.195Z,18.08
2023-05-20T22:07:23.390Z,21.45
2023-05-20T22:09:51.567Z,19.42
2023-05-20T22:12:20.346Z,21.38
2023-05-20T22:14:49.903Z,20.58
2023-05-20T22:17:18.352Z,21.27
2023-05-20T22:19:49.865Z,22.52
2023-05-20T22:22:18.732Z,22.83
2023-05-20T22:24:46.902Z,23.52
2023-05-20T22:27:15.018Z,21.73
2023-05-20T22:29:43.081Z,23.45
2023-05-20T22:32:15.185Z,21.08
2023-05-20T22:34:45.156Z,22.10
2023-05-20T22:37:13.427Z,22.77
2023-05-20T22:39:41.631Z,21.77
2023-05-20T22:42:10.131Z,22.15
2023-05-20T22:44:40.310Z,24.15
2023-05-20T22:47:08.426Z,23.58
2023-05-20T22:49:39.443Z,29.15
2023-05-20T22:52:08.050Z,23.88
2023-05-20T22:54:36.370Z,25.55
2023-05-20T22:57:05.341Z,26.45
2023-05-20T22:59:34.282Z,22.30
2023-05-20T23:02:02.430Z,23.25
2023-05-20T23:04:30.630Z,29.13
2023-05-20T23:07:00.289Z,24.60
2023-05-20T23:09:28.445Z,27.05
2023-05-20T23:11:56.544Z,23.65
2023-05-20T23:14:24.870Z,23.63
2023-05-20T23:16:53.102Z,29.73
2023-05-20T23:19:21.283Z,25.65
2023-05-20T23:21:49.741Z,22.73
2023-05-20T23:24:19.347Z,31.38
2023-05-20T23:26:47.526Z,26.48
2023-05-20T23:29:15.786Z,27.42
2023-05-20T23:31:46.884Z,31.88
2023-05-20T23:34:15.922Z,32.30
2023-05-20T23:36:45.669Z,24.23
2023-05-20T23:39:14.785Z,29.63
2023-05-20T23:41:45.706Z,24.63
2023-05-20T23:44:13.800Z,26.70
2023-05-20T23:46:42.750Z,27.05
2023-05-20T23:49:13.398Z,31.17
2023-05-20T23:51:41.493Z,27.70
2023-05-20T23:54:09.713Z,25.92
2023-05-20T23:56:41.023Z,27.20
2023-05-20T23:59:10.554Z,31.48
